Time;durP1;ratioP1;P1;durP2;ratioP2;P2;SDS_P1;SDS_P2;PMS_P1;PMS_P2;Temp;Humidity;BMP_temperature;BMP_pressure;BME280_temperature;BME280_humidity;BME280_pressure;Samples;Min_cycle;Max_cycle;Signal;HPM_P1;HPM_P2
2023/12/13 00:01:39;;;;;;;4.47;2.33;;;;;;;;;;2613514;54;20433;-85
2023/12/13 00:04:05;;;;;;;8.77;3.00;;;;;;;;;;2614065;54;20531;-85
2023/12/13 00:06:31;;;;;;;9.87;3.77;;;;;;;;;;2613081;39;20834;-72
2023/12/13 00:08:57;;;;;;;5.10;2.70;;;;;;;;;;2611459;54;20537;-71
2023/12/13 00:11:23;;;;;;;5.07;2.87;;;;;;;;;;2613202;39;20804;-72
2023/12/13 00:13:49;;;;;;;6.67;3.33;;;;;;;;;;2612821;54;20475;-73
2023/12/13 00:16:16;;;;;;;7.10;2.97;;;;;;;;;;2611513;54;20460;-83
2023/12/13 00:18:42;;;;;;;6.23;2.20;;;;;;;;;;2612759;54;20410;-83
2023/12/13 00:21:09;;;;;;;8.63;3.03;;;;;;;;;;2616147;39;20993;-85
2023/12/13 00:23:35;;;;;;;3.93;2.40;;;;;;;;;;2613262;47;21062;-83
2023/12/13 00:26:02;;;;;;;2.50;1.90;;;;;;;;;;2615085;54;20452;-85
2023/12/13 00:28:28;;;;;;;5.47;2.13;;;;;;;;;;2615869;47;20419;-83
2023/12/13 00:30:54;;;;;;;3.63;2.10;;;;;;;;;;2614561;47;20420;-83
2023/12/13 00:33:21;;;;;;;8.80;2.20;;;;;;;;;;2616972;54;20472;-83
2023/12/13 00:35:47;;;;;;;5.80;1.90;;;;;;;;;;2616831;54;20390;-84
2023/12/13 00:38:13;;;;;;;3.00;1.73;;;;;;;;;;2616430;54;21190;-83
2023/12/13 00:40:39;;;;;;;3.13;1.43;;;;;;;;;;2616497;54;20440;-86
2023/12/13 00:43:06;;;;;;;3.57;1.90;;;;;;;;;;2616783;54;20425;-83
2023/12/13 00:45:32;;;;;;;3.13;1.90;;;;;;;;;;2616845;39;20794;-83
2023/12/13 00:47:59;;;;;;;5.53;1.80;;;;;;;;;;2616759;47;20427;-84
2023/12/13 00:50:26;;;;;;;3.13;1.80;;;;;;;;;;2616948;54;20415;-85
2023/12/13 00:52:52;;;;;;;7.80;2.60;;;;;;;;;;2616235;47;21037;-84
2023/12/13 00:55:18;;;;;;;3.33;1.60;;;;;;;;;;2616803;54;20418;-85
2023/12/13 00:57:44;;;;;;;6.60;1.80;;;;;;;;;;2615941;54;20527;-84
2023/12/13 01:00:14;;;;;;;3.23;2.47;;;;;;;;;;2615677;47;20413;-84
2023/12/13 01:02:40;;;;;;;4.40;2.30;;;;;;;;;;2616572;54;20399;-85
2023/12/13 01:05:07;;;;;;;2.53;1.20;;;;;;;;;;2616062;54;20446;-84
2023/12/13 01:07:33;;;;;;;3.83;1.67;;;;;;;;;;2615988;54;20524;-84
2023/12/13 01:09:59;;;;;;;4.67;1.90;;;;;;;;;;2616422;54;20411;-84
2023/12/13 01:12:25;;;;;;;3.20;1.50;;;;;;;;;;2616850;54;20393;-86
2023/12/13 01:14:51;;;;;;;4.63;1.67;;;;;;;;;;2616509;54;20444;-85
2023/12/13 01:17:17;;;;;;;3.70;1.90;;;;;;;;;;2615667;47;20474;-83
2023/12/13 01:19:43;;;;;;;3.93;1.17;;;;;;;;;;2614265;54;20473;-82
2023/12/13 01:22:09;;;;;;;5.13;2.30;;;;;;;;;;2615749;54;20404;-83
2023/12/13 01:24:37;;;;;;;8.23;2.63;;;;;;;;;;2614888;47;20475;-83
2023/12/13 01:27:03;;;;;;;3.57;1.70;;;;;;;;;;2614447;54;20981;-74
2023/12/13 01:29:30;;;;;;;4.43;2.00;;;;;;;;;;2613758;54;21012;-75
2023/12/13 01:31:56;;;;;;;4.53;2.20;;;;;;;;;;2613727;54;20420;-74
2023/12/13 01:34:22;;;;;;;5.50;2.13;;;;;;;;;;2613755;39;20878;-73
2023/12/13 01:36:48;;;;;;;4.83;1.70;;;;;;;;;;2613423;54;20808;-75
2023/12/13 01:39:17;;;;;;;7.63;2.50;;;;;;;;;;2613654;54;20440;-74
2023/12/13 01:41:44;;;;;;;4.83;2.00;;;;;;;;;;2613552;54;20413;-75
2023/12/13 01:44:10;;;;;;;6.27;2.57;;;;;;;;;;2613124;54;20428;-75
2023/12/13 01:46:37;;;;;;;5.27;2.27;;;;;;;;;;2613777;54;20410;-75
2023/12/13 01:49:05;;;;;;;6.70;2.53;;;;;;;;;;2613076;54;20947;-74
2023/12/13 01:51:31;;;;;;;3.00;2.07;;;;;;;;;;2613529;39;20825;-76
2023/12/13 01:53:57;;;;;;;8.30;2.73;;;;;;;;;;2611235;47;20435;-75
2023/12/13 01:56:23;;;;;;;11.30;3.13;;;;;;;;;;2613792;46;20461;-74
2023/12/13 01:58:50;;;;;;;4.43;3.07;;;;;;;;;;2613533;47;20419;-75
2023/12/13 02:01:16;;;;;;;5.43;2.50;;;;;;;;;;2614569;39;20704;-73
2023/12/13 02:03:42;;;;;;;2.93;1.77;;;;;;;;;;2613042;47;21036;-73
2023/12/13 02:06:08;;;;;;;9.03;2.67;;;;;;;;;;2613087;47;20439;-75
2023/12/13 02:08:34;;;;;;;6.20;2.30;;;;;;;;;;2612658;54;20460;-75
2023/12/13 02:11:00;;;;;;;6.77;2.33;;;;;;;;;;2614193;31;21104;-75
2023/12/13 02:13:26;;;;;;;11.50;2.27;;;;;;;;;;2612026;54;20477;-75
2023/12/13 02:15:52;;;;;;;3.40;1.90;;;;;;;;;;2612797;46;20429;-74
2023/12/13 02:18:19;;;;;;;5.93;2.10;;;;;;;;;;2613430;54;20463;-75
2023/12/13 02:20:45;;;;;;;4.37;2.07;;;;;;;;;;2613051;54;20433;-74
2023/12/13 02:23:11;;;;;;;5.03;2.00;;;;;;;;;;2612972;54;20443;-75
2023/12/13 02:25:57;;;;;;;6.97;2.70;;;;;;;;;;2612941;54;20476;-74
2023/12/13 02:28:24;;;;;;;4.40;3.07;;;;;;;;;;2614206;54;20538;-82
2023/12/13 02:30:51;;;;;;;7.87;2.07;;;;;;;;;;2614770;54;20517;-83
2023/12/13 02:33:18;;;;;;;7.90;2.33;;;;;;;;;;2614580;54;20430;-81
2023/12/13 02:35:45;;;;;;;8.90;3.63;;;;;;;;;;2614793;39;20819;-83
2023/12/13 02:38:11;;;;;;;5.10;2.13;;;;;;;;;;2612860;54;20410;-75
2023/12/13 02:40:37;;;;;;;5.00;2.40;;;;;;;;;;2613730;47;20530;-76
2023/12/13 02:43:03;;;;;;;2.83;1.53;;;;;;;;;;2613216;39;20809;-74
2023/12/13 02:45:30;;;;;;;5.77;2.07;;;;;;;;;;2612758;54;20425;-76
2023/12/13 02:47:59;;;;;;;4.37;2.40;;;;;;;;;;2614286;54;20510;-82
2023/12/13 02:50:25;;;;;;;3.60;2.10;;;;;;;;;;2614664;54;20535;-82
2023/12/13 02:52:52;;;;;;;5.90;2.20;;;;;;;;;;2615071;39;20854;-81
2023/12/13 02:55:18;;;;;;;6.73;2.50;;;;;;;;;;2614082;47;20511;-81
2023/12/13 02:57:44;;;;;;;5.13;2.17;;;;;;;;;;2613856;54;20475;-81
2023/12/13 03:00:10;;;;;;;5.90;1.77;;;;;;;;;;2613393;54;20452;-80
2023/12/13 03:02:37;;;;;;;7.50;2.50;;;;;;;;;;2615301;54;20948;-83
2023/12/13 03:05:03;;;;;;;6.40;3.87;;;;;;;;;;2614335;54;20422;-80
2023/12/13 03:07:31;;;;;;;7.80;2.60;;;;;;;;;;2614062;54;20434;-84
2023/12/13 03:09:57;;;;;;;5.50;2.47;;;;;;;;;;2614665;54;20407;-80
2023/12/13 03:12:23;;;;;;;7.60;2.60;;;;;;;;;;2614345;54;20430;-81
2023/12/13 03:14:49;;;;;;;6.90;2.93;;;;;;;;;;2614320;54;20997;-82
2023/12/13 03:17:15;;;;;;;3.20;2.00;;;;;;;;;;2614487;47;20455;-83
2023/12/13 03:19:41;;;;;;;9.70;2.60;;;;;;;;;;2614973;54;20436;-83
2023/12/13 03:22:07;;;;;;;7.70;2.40;;;;;;;;;;2614491;54;20403;-83
2023/12/13 03:24:35;;;;;;;6.10;2.60;;;;;;;;;;2614611;54;20513;-82
2023/12/13 03:27:01;;;;;;;10.17;3.17;;;;;;;;;;2613958;54;20420;-83
2023/12/13 03:29:28;;;;;;;11.00;3.20;;;;;;;;;;2615053;39;20797;-83
2023/12/13 03:31:54;;;;;;;6.90;2.80;;;;;;;;;;2615251;54;20404;-82
2023/12/13 03:34:20;;;;;;;8.13;3.00;;;;;;;;;;2614859;54;21189;-83
2023/12/13 03:36:47;;;;;;;6.27;2.50;;;;;;;;;;2614450;39;20860;-83
2023/12/13 03:39:14;;;;;;;8.33;2.80;;;;;;;;;;2614730;54;20406;-80
2023/12/13 03:41:41;;;;;;;7.10;2.67;;;;;;;;;;2614772;54;20440;-82
2023/12/13 03:44:07;;;;;;;7.43;2.80;;;;;;;;;;2615093;54;20564;-82
2023/12/13 03:46:33;;;;;;;6.80;2.40;;;;;;;;;;2615521;54;20426;-81
2023/12/13 03:48:59;;;;;;;8.60;2.87;;;;;;;;;;2614985;54;20382;-83
2023/12/13 03:51:25;;;;;;;4.30;2.67;;;;;;;;;;2613882;39;20512;-81
2023/12/13 03:53:51;;;;;;;4.10;2.13;;;;;;;;;;2614592;54;20413;-82
2023/12/13 03:56:17;;;;;;;5.63;2.90;;;;;;;;;;2613880;54;20417;-72
2023/12/13 03:58:43;;;;;;;5.37;3.03;;;;;;;;;;2613269;31;20863;-75
2023/12/13 04:01:09;;;;;;;10.60;3.70;;;;;;;;;;2612177;54;20451;-72
2023/12/13 04:03:35;;;;;;;11.93;3.00;;;;;;;;;;2612344;54;20493;-72
2023/12/13 04:06:03;;;;;;;9.50;2.90;;;;;;;;;;2612085;47;20422;-71
2023/12/13 04:08:29;;;;;;;6.33;2.50;;;;;;;;;;2613126;54;21011;-74
2023/12/13 04:10:55;;;;;;;10.40;2.90;;;;;;;;;;2613437;54;20402;-72
2023/12/13 04:13:21;;;;;;;5.97;3.03;;;;;;;;;;2612130;47;20463;-72
2023/12/13 04:15:47;;;;;;;8.47;3.77;;;;;;;;;;2612557;54;20430;-73
2023/12/13 04:18:13;;;;;;;3.73;1.80;;;;;;;;;;2612515;54;20458;-72
2023/12/13 04:20:39;;;;;;;6.73;2.60;;;;;;;;;;2611977;54;20422;-72
2023/12/13 04:23:05;;;;;;;7.50;2.70;;;;;;;;;;2612513;54;20421;-72
2023/12/13 04:25:31;;;;;;;12.50;2.27;;;;;;;;;;2612860;54;20875;-74
2023/12/13 04:27:57;;;;;;;6.73;3.43;;;;;;;;;;2612259;47;20420;-73
2023/12/13 04:30:23;;;;;;;13.43;2.63;;;;;;;;;;2612475;54;20437;-73
2023/12/13 04:32:49;;;;;;;8.00;3.63;;;;;;;;;;2612486;54;20899;-73
2023/12/13 04:35:15;;;;;;;8.67;3.00;;;;;;;;;;2612588;54;20431;-73
2023/12/13 04:37:41;;;;;;;8.70;3.13;;;;;;;;;;2613582;39;20487;-73
2023/12/13 04:40:08;;;;;;;8.43;3.30;;;;;;;;;;2612577;54;20435;-73
2023/12/13 04:42:35;;;;;;;13.20;5.50;;;;;;;;;;2612766;54;20409;-73
2023/12/13 04:45:01;;;;;;;6.10;3.40;;;;;;;;;;2612926;54;20420;-71
2023/12/13 04:47:27;;;;;;;9.40;2.47;;;;;;;;;;2612773;54;20415;-72
2023/12/13 04:49:53;;;;;;;5.70;2.70;;;;;;;;;;2612740;54;20427;-71
2023/12/13 04:52:19;;;;;;;6.23;3.20;;;;;;;;;;2612275;54;20438;-73
2023/12/13 04:54:45;;;;;;;9.60;2.93;;;;;;;;;;2611839;54;21014;-72
2023/12/13 04:57:11;;;;;;;9.60;3.23;;;;;;;;;;2613700;54;20416;-73
2023/12/13 04:59:37;;;;;;;6.33;2.50;;;;;;;;;;2613646;54;20443;-73
2023/12/13 05:02:03;;;;;;;13.53;3.27;;;;;;;;;;2613988;39;20889;-72
2023/12/13 05:04:29;;;;;;;15.10;4.10;;;;;;;;;;2614016;54;20421;-72
2023/12/13 05:06:55;;;;;;;10.27;3.60;;;;;;;;;;2613572;54;20431;-76
2023/12/13 05:09:21;;;;;;;10.77;3.37;;;;;;;;;;2614159;54;20422;-75
2023/12/13 05:11:48;;;;;;;6.07;3.40;;;;;;;;;;2613771;46;20515;-75
2023/12/13 05:14:14;;;;;;;16.13;3.90;;;;;;;;;;2613819;54;20411;-75
2023/12/13 05:16:40;;;;;;;10.53;3.30;;;;;;;;;;2614297;54;20484;-75
2023/12/13 05:19:06;;;;;;;4.20;2.13;;;;;;;;;;2613185;47;20426;-74
2023/12/13 05:21:32;;;;;;;13.93;3.27;;;;;;;;;;2613357;47;20469;-75
2023/12/13 05:23:59;;;;;;;9.30;3.53;;;;;;;;;;2613515;54;20456;-76
2023/12/13 05:26:25;;;;;;;8.30;2.50;;;;;;;;;;2612654;54;20433;-77
2023/12/13 05:28:51;;;;;;;10.13;3.87;;;;;;;;;;2613010;54;20481;-75
2023/12/13 05:31:21;;;;;;;7.23;3.80;;;;;;;;;;2613931;47;20980;-74
2023/12/13 05:33:47;;;;;;;13.20;3.27;;;;;;;;;;2612996;54;20427;-74
2023/12/13 05:36:13;;;;;;;3.93;2.53;;;;;;;;;;2613853;54;20439;-75
2023/12/13 05:38:40;;;;;;;10.40;3.80;;;;;;;;;;2613829;54;20581;-75
2023/12/13 05:41:06;;;;;;;13.23;4.00;;;;;;;;;;2613594;39;20736;-75
2023/12/13 05:43:35;;;;;;;9.93;3.77;;;;;;;;;;2612494;54;20423;-74
2023/12/13 05:46:01;;;;;;;11.03;4.20;;;;;;;;;;2612770;54;20420;-74
2023/12/13 05:48:27;;;;;;;9.70;5.10;;;;;;;;;;2612518;54;20410;-75
2023/12/13 05:50:53;;;;;;;9.90;4.63;;;;;;;;;;2612443;54;20428;-75
2023/12/13 05:53:19;;;;;;;13.67;4.77;;;;;;;;;;2612787;54;20462;-76
2023/12/13 05:55:45;;;;;;;8.40;3.60;;;;;;;;;;2612515;54;20420;-84
2023/12/13 05:58:11;;;;;;;14.07;3.97;;;;;;;;;;2613103;54;20437;-75
2023/12/13 06:00:37;;;;;;;12.67;4.60;;;;;;;;;;2612319;54;20436;-75
2023/12/13 06:03:03;;;;;;;10.00;3.40;;;;;;;;;;2612802;54;20455;-74
2023/12/13 06:05:29;;;;;;;16.23;4.67;;;;;;;;;;2613308;39;20850;-73
2023/12/13 06:07:56;;;;;;;14.03;5.23;;;;;;;;;;2613520;54;20416;-75
2023/12/13 06:10:22;;;;;;;9.83;4.20;;;;;;;;;;2612466;54;20428;-75
2023/12/13 06:12:52;;;;;;;10.77;6.17;;;;;;;;;;2613427;54;20534;-74
2023/12/13 06:15:18;;;;;;;8.87;5.13;;;;;;;;;;2612613;47;20430;-75
2023/12/13 06:17:44;;;;;;;9.23;4.40;;;;;;;;;;2612708;47;21168;-73
2023/12/13 06:20:11;;;;;;;9.60;5.17;;;;;;;;;;2612367;54;20430;-73
2023/12/13 06:22:37;;;;;;;7.97;4.53;;;;;;;;;;2612461;54;20501;-72
2023/12/13 06:25:03;;;;;;;8.50;4.47;;;;;;;;;;2613393;54;20447;-71
2023/12/13 06:27:29;;;;;;;10.80;4.80;;;;;;;;;;2612811;54;20404;-73
2023/12/13 06:29:55;;;;;;;13.83;5.00;;;;;;;;;;2609244;54;21010;-72
2023/12/13 06:32:21;;;;;;;15.47;4.87;;;;;;;;;;2613102;54;20431;-72
2023/12/13 06:34:47;;;;;;;8.80;4.30;;;;;;;;;;2611347;54;20421;-73
2023/12/13 06:37:13;;;;;;;10.70;4.40;;;;;;;;;;2612005;47;20835;-72
2023/12/13 06:39:40;;;;;;;16.83;4.67;;;;;;;;;;2613320;54;20434;-72
2023/12/13 06:42:08;;;;;;;15.93;5.23;;;;;;;;;;2611733;54;20530;-71
2023/12/13 06:44:36;;;;;;;9.13;4.57;;;;;;;;;;2613116;54;20433;-71
2023/12/13 06:47:01;;;;;;;11.70;4.37;;;;;;;;;;2614323;39;20815;-72
2023/12/13 06:49:30;;;;;;;18.27;6.27;;;;;;;;;;2612699;54;20420;-72
2023/12/13 06:51:57;;;;;;;13.13;4.47;;;;;;;;;;2613624;39;20854;-74
2023/12/13 06:54:23;;;;;;;10.93;4.60;;;;;;;;;;2612558;54;20647;-72
2023/12/13 06:56:49;;;;;;;12.73;4.47;;;;;;;;;;2613129;54;20491;-72
2023/12/13 06:59:15;;;;;;;8.40;4.87;;;;;;;;;;2612106;54;20402;-72
2023/12/13 07:01:41;;;;;;;13.97;5.30;;;;;;;;;;2611259;54;20425;-72
2023/12/13 07:04:07;;;;;;;11.73;4.80;;;;;;;;;;2612385;54;20409;-71
2023/12/13 07:06:34;;;;;;;7.60;4.70;;;;;;;;;;2614831;54;20434;-88
2023/12/13 07:09:00;;;;;;;12.03;5.80;;;;;;;;;;2620843;54;20404;-89
2023/12/13 07:11:26;;;;;;;13.97;4.87;;;;;;;;;;2620723;54;20413;-88
2023/12/13 07:13:52;;;;;;;8.50;4.43;;;;;;;;;;2620583;54;20428;-88
2023/12/13 07:16:18;;;;;;;10.37;3.93;;;;;;;;;;2618448;54;20469;-86
2023/12/13 07:18:45;;;;;;;23.13;6.53;;;;;;;;;;2617052;54;20480;-85
2023/12/13 07:21:11;;;;;;;8.13;4.90;;;;;;;;;;2618084;54;20457;-88
2023/12/13 07:23:38;;;;;;;15.53;5.53;;;;;;;;;;2618693;54;20430;-87
2023/12/13 07:26:04;;;;;;;21.73;6.60;;;;;;;;;;2617260;47;20527;-73
2023/12/13 07:28:31;;;;;;;19.20;5.80;;;;;;;;;;2611386;54;20433;-72
2023/12/13 07:30:57;;;;;;;10.37;4.97;;;;;;;;;;2611602;54;20422;-72
2023/12/13 07:33:23;;;;;;;12.10;5.00;;;;;;;;;;2613392;31;20880;-73
2023/12/13 07:35:49;;;;;;;9.73;5.30;;;;;;;;;;2613168;39;20692;-72
2023/12/13 07:38:15;;;;;;;8.40;5.10;;;;;;;;;;2611791;54;20390;-73
2023/12/13 07:40:47;;;;;;;15.40;4.67;;;;;;;;;;2612795;54;20418;-72
2023/12/13 07:43:13;;;;;;;10.40;5.50;;;;;;;;;;2612489;54;20399;-72
2023/12/13 07:45:39;;;;;;;7.90;4.03;;;;;;;;;;2611104;54;20442;-72
2023/12/13 07:48:05;;;;;;;7.60;4.90;;;;;;;;;;2612572;39;21031;-73
2023/12/13 07:50:31;;;;;;;14.13;4.73;;;;;;;;;;2612764;54;20412;-72
2023/12/13 07:52:57;;;;;;;5.67;4.60;;;;;;;;;;2610478;54;20513;-72
2023/12/13 07:55:24;;;;;;;10.00;4.80;;;;;;;;;;2610632;54;20416;-71
2023/12/13 07:57:50;;;;;;;8.57;4.37;;;;;;;;;;2611770;47;20526;-72
2023/12/13 08:00:17;;;;;;;11.13;4.97;;;;;;;;;;2611719;54;20435;-72
2023/12/13 08:02:43;;;;;;;11.77;4.73;;;;;;;;;;2612082;54;20490;-72
2023/12/13 08:05:09;;;;;;;11.97;5.23;;;;;;;;;;2611656;47;20417;-72
2023/12/13 08:07:35;;;;;;;15.03;5.00;;;;;;;;;;2611361;54;20442;-72
2023/12/13 08:10:06;;;;;;;12.60;4.70;;;;;;;;;;2612038;47;20425;-72
2023/12/13 08:12:34;;;;;;;8.90;4.00;;;;;;;;;;2612774;51;20932;-73
2023/12/13 08:15:00;;;;;;;18.90;5.97;;;;;;;;;;2612446;54;20402;-71
2023/12/13 08:17:27;;;;;;;8.53;3.83;;;;;;;;;;2612905;54;20469;-72
2023/12/13 08:19:54;;;;;;;11.43;3.60;;;;;;;;;;2609995;54;20423;-73
2023/12/13 08:22:20;;;;;;;11.63;3.77;;;;;;;;;;2612286;39;21098;-72
2023/12/13 08:24:46;;;;;;;13.53;4.17;;;;;;;;;;2612579;54;20434;-71
2023/12/13 08:27:12;;;;;;;12.60;4.60;;;;;;;;;;2612438;54;20453;-72
2023/12/13 08:29:38;;;;;;;10.27;3.70;;;;;;;;;;2613162;54;20408;-72
2023/12/13 08:32:06;;;;;;;6.50;4.20;;;;;;;;;;2613606;54;20399;-71
2023/12/13 08:34:32;;;;;;;6.97;4.03;;;;;;;;;;2612977;47;20418;-71
2023/12/13 08:36:58;;;;;;;13.57;4.90;;;;;;;;;;2613220;47;20899;-77
2023/12/13 08:39:25;;;;;;;10.00;4.00;;;;;;;;;;2613227;54;20461;-76
2023/12/13 08:41:51;;;;;;;6.07;3.93;;;;;;;;;;2612638;54;20967;-76
2023/12/13 08:44:17;;;;;;;13.00;4.73;;;;;;;;;;2613507;54;20435;-74
2023/12/13 08:46:45;;;;;;;10.40;4.30;;;;;;;;;;2613572;39;20889;-75
2023/12/13 08:49:11;;;;;;;13.33;6.10;;;;;;;;;;2613290;54;20507;-75
2023/12/13 08:51:38;;;;;;;17.73;5.30;;;;;;;;;;2612912;54;20423;-76
2023/12/13 08:54:04;;;;;;;12.10;6.43;;;;;;;;;;2613564;54;20387;-75
2023/12/13 08:56:31;;;;;;;9.77;5.10;;;;;;;;;;2613629;47;20422;-76
2023/12/13 08:58:58;;;;;;;9.27;4.77;;;;;;;;;;2611898;54;21023;-76
2023/12/13 09:01:24;;;;;;;9.10;5.70;;;;;;;;;;2612274;54;20955;-77
2023/12/13 09:03:53;;;;;;;9.10;3.73;;;;;;;;;;2612369;54;20430;-74
2023/12/13 09:06:19;;;;;;;10.20;5.07;;;;;;;;;;2612803;54;20473;-76
2023/12/13 09:08:45;;;;;;;9.90;4.50;;;;;;;;;;2613981;54;20396;-75
2023/12/13 09:11:11;;;;;;;13.87;6.40;;;;;;;;;;2613402;54;20419;-77
2023/12/13 09:13:37;;;;;;;12.33;5.47;;;;;;;;;;2612686;54;20955;-76
2023/12/13 09:16:04;;;;;;;9.13;5.63;;;;;;;;;;2611692;46;20453;-76
2023/12/13 09:18:30;;;;;;;8.10;5.47;;;;;;;;;;2612789;54;20438;-75
2023/12/13 09:20:56;;;;;;;16.93;4.93;;;;;;;;;;2613014;54;20420;-76
2023/12/13 09:23:23;;;;;;;9.10;4.93;;;;;;;;;;2613216;54;20404;-76
2023/12/13 09:25:50;;;;;;;10.87;4.77;;;;;;;;;;2613441;54;20430;-85
2023/12/13 09:28:17;;;;;;;7.20;4.00;;;;;;;;;;2614875;54;20549;-80
2023/12/13 09:30:44;;;;;;;5.53;3.80;;;;;;;;;;2613913;54;20431;-81
2023/12/13 09:33:13;;;;;;;11.70;4.47;;;;;;;;;;2614564;39;20814;-82
2023/12/13 09:35:39;;;;;;;9.57;3.90;;;;;;;;;;2615871;47;20419;-82
2023/12/13 09:38:05;;;;;;;15.37;3.90;;;;;;;;;;2616199;39;20855;-82
2023/12/13 09:40:32;;;;;;;10.70;4.77;;;;;;;;;;2614081;47;20427;-82
2023/12/13 09:43:00;;;;;;;7.03;3.20;;;;;;;;;;2615149;54;20537;-80
2023/12/13 09:45:29;;;;;;;16.43;4.23;;;;;;;;;;2614664;46;20443;-82
2023/12/13 09:47:55;;;;;;;7.60;4.00;;;;;;;;;;2615334;54;20428;-82
2023/12/13 09:50:22;;;;;;;11.80;4.63;;;;;;;;;;2613759;54;20434;-81
2023/12/13 09:52:49;;;;;;;6.60;3.70;;;;;;;;;;2615222;54;20467;-79
2023/12/13 09:55:16;;;;;;;8.33;3.97;;;;;;;;;;2614015;54;20395;-80
2023/12/13 09:57:42;;;;;;;10.50;3.60;;;;;;;;;;2613994;54;20415;-82
2023/12/13 10:00:12;;;;;;;20.20;4.57;;;;;;;;;;2613639;39;20439;-81
2023/12/13 10:02:38;;;;;;;9.77;3.40;;;;;;;;;;2613869;47;20408;-81
2023/12/13 10:05:05;;;;;;;13.90;4.27;;;;;;;;;;2615179;54;20411;-81
2023/12/13 10:07:31;;;;;;;11.83;4.07;;;;;;;;;;2614045;51;20466;-81
2023/12/13 10:09:57;;;;;;;8.63;3.83;;;;;;;;;;2613814;39;20907;-79
2023/12/13 10:12:26;;;;;;;14.67;3.67;;;;;;;;;;2613859;54;20452;-81
2023/12/13 10:14:54;;;;;;;9.53;3.90;;;;;;;;;;2613686;46;21050;-79
2023/12/13 10:17:21;;;;;;;18.00;4.93;;;;;;;;;;2614618;46;20488;-83
2023/12/13 10:19:48;;;;;;;8.07;3.63;;;;;;;;;;2614265;54;20461;-82
2023/12/13 10:22:16;;;;;;;10.03;3.63;;;;;;;;;;2614222;39;20765;-81
2023/12/13 10:24:42;;;;;;;9.83;2.87;;;;;;;;;;2613740;54;20441;-82
2023/12/13 10:27:12;;;;;;;6.17;2.90;;;;;;;;;;2615188;39;20765;-84
2023/12/13 10:29:38;;;;;;;10.93;3.10;;;;;;;;;;2613996;54;20423;-81
2023/12/13 10:32:06;;;;;;;8.20;3.00;;;;;;;;;;2613875;47;20435;-83
2023/12/13 10:34:32;;;;;;;10.50;3.43;;;;;;;;;;2614146;54;20425;-80
2023/12/13 10:37:00;;;;;;;7.20;3.67;;;;;;;;;;2613904;54;20935;-75
2023/12/13 10:39:28;;;;;;;11.90;3.80;;;;;;;;;;2613708;54;20473;-76
2023/12/13 10:41:55;;;;;;;6.60;3.30;;;;;;;;;;2613667;47;20535;-76
2023/12/13 10:44:22;;;;;;;11.93;4.33;;;;;;;;;;2612931;54;20423;-76
2023/12/13 10:46:51;;;;;;;3.47;1.90;;;;;;;;;;2612835;54;21007;-74
2023/12/13 10:49:18;;;;;;;11.97;4.40;;;;;;;;;;2611998;54;20415;-75
2023/12/13 10:51:44;;;;;;;10.27;3.43;;;;;;;;;;2612431;47;20422;-75
2023/12/13 10:54:14;;;;;;;8.10;2.97;;;;;;;;;;2613065;54;20438;-76
2023/12/13 10:56:41;;;;;;;6.93;2.80;;;;;;;;;;2613818;47;20419;-81
2023/12/13 10:59:09;;;;;;;7.60;2.83;;;;;;;;;;2613804;54;20423;-81
2023/12/13 11:01:38;;;;;;;9.03;3.50;;;;;;;;;;2613070;47;20433;-80
2023/12/13 11:04:04;;;;;;;9.00;2.50;;;;;;;;;;2614128;39;20730;-81
2023/12/13 11:06:31;;;;;;;17.00;3.97;;;;;;;;;;2613563;54;21301;-81
2023/12/13 11:09:08;;;;;;;7.60;2.90;;;;;;;;;;2614299;54;20527;-82
2023/12/13 11:11:34;;;;;;;8.83;3.10;;;;;;;;;;2614207;47;20441;-80
2023/12/13 11:14:01;;;;;;;9.47;3.33;;;;;;;;;;2613749;54;20457;-80
2023/12/13 11:16:27;;;;;;;6.40;3.23;;;;;;;;;;2615109;31;20991;-80
2023/12/13 11:18:56;;;;;;;8.50;2.50;;;;;;;;;;2613761;31;20907;-81
2023/12/13 11:21:32;;;;;;;8.30;2.83;;;;;;;;;;2613645;47;20419;-82
2023/12/13 11:24:09;;;;;;;10.37;3.63;;;;;;;;;;2613470;39;20905;-82
2023/12/13 11:26:37;;;;;;;7.07;3.10;;;;;;;;;;2614208;54;21381;-80
2023/12/13 11:29:12;;;;;;;10.10;3.30;;;;;;;;;;2614265;47;20535;-80
2023/12/13 11:31:47;;;;;;;4.60;2.93;;;;;;;;;;2614713;39;20956;-81
2023/12/13 11:34:14;;;;;;;4.80;2.60;;;;;;;;;;2614169;54;20416;-83
2023/12/13 11:36:42;;;;;;;7.80;2.73;;;;;;;;;;2614526;54;20419;-82
2023/12/13 11:39:08;;;;;;;6.30;3.20;;;;;;;;;;2615024;39;20882;-80
2023/12/13 11:41:36;;;;;;;6.40;2.40;;;;;;;;;;2614136;47;20443;-82
2023/12/13 11:44:02;;;;;;;5.97;2.30;;;;;;;;;;2614273;39;20903;-83
2023/12/13 11:46:30;;;;;;;5.93;2.47;;;;;;;;;;2615542;39;20798;-83
2023/12/13 11:48:56;;;;;;;10.03;3.40;;;;;;;;;;2614794;54;20419;-84
2023/12/13 11:51:22;;;;;;;6.83;3.00;;;;;;;;;;2615173;54;20412;-82
2023/12/13 11:53:51;;;;;;;11.20;3.50;;;;;;;;;;2614114;54;20419;-84
2023/12/13 11:56:20;;;;;;;5.33;2.70;;;;;;;;;;2613450;54;20413;-83
2023/12/13 11:58:49;;;;;;;7.77;3.40;;;;;;;;;;2614361;54;20418;-82
2023/12/13 12:01:15;;;;;;;4.63;3.20;;;;;;;;;;2613241;54;20434;-82
2023/12/13 12:03:42;;;;;;;5.23;2.43;;;;;;;;;;2614653;54;20868;-81
2023/12/13 12:06:15;;;;;;;6.20;3.23;;;;;;;;;;2616097;46;20411;-74
2023/12/13 12:08:42;;;;;;;4.33;2.83;;;;;;;;;;2613730;39;20797;-73
2023/12/13 12:11:08;;;;;;;9.97;3.97;;;;;;;;;;2613824;39;20799;-74
2023/12/13 12:13:34;;;;;;;9.37;4.90;;;;;;;;;;2611978;47;20414;-74
2023/12/13 12:16:00;;;;;;;8.53;3.67;;;;;;;;;;2613171;39;20816;-73
2023/12/13 12:18:27;;;;;;;5.00;3.50;;;;;;;;;;2613747;54;20917;-75
2023/12/13 12:20:53;;;;;;;10.73;3.67;;;;;;;;;;2612997;54;20418;-73
2023/12/13 12:23:19;;;;;;;6.50;4.60;;;;;;;;;;2612602;54;20529;-73
2023/12/13 12:25:45;;;;;;;7.40;4.07;;;;;;;;;;2612792;54;20406;-73
2023/12/13 12:28:11;;;;;;;6.90;4.60;;;;;;;;;;2613529;54;20426;-73
2023/12/13 12:30:42;;;;;;;8.60;4.37;;;;;;;;;;2613977;39;20888;-73
2023/12/13 12:33:09;;;;;;;13.13;4.10;;;;;;;;;;2612931;46;20422;-74
2023/12/13 12:35:35;;;;;;;8.77;3.67;;;;;;;;;;2613606;39;21385;-75
2023/12/13 12:38:04;;;;;;;8.43;5.20;;;;;;;;;;2612554;54;20422;-71
2023/12/13 12:40:30;;;;;;;5.70;3.27;;;;;;;;;;2613224;54;20445;-73
2023/12/13 12:42:56;;;;;;;31.77;19.10;;;;;;;;;;2613346;54;20430;-72
2023/12/13 12:45:22;;;;;;;10.30;6.20;;;;;;;;;;2613602;47;20407;-72
2023/12/13 12:47:49;;;;;;;10.80;6.37;;;;;;;;;;2614053;54;20420;-72
2023/12/13 12:50:15;;;;;;;6.10;3.80;;;;;;;;;;2613493;54;20491;-72
2023/12/13 12:52:42;;;;;;;5.80;4.53;;;;;;;;;;2613496;54;20426;-72
2023/12/13 12:55:08;;;;;;;6.53;4.17;;;;;;;;;;2612081;47;20478;-72
2023/12/13 12:57:34;;;;;;;24.87;18.57;;;;;;;;;;2613781;54;20414;-74
2023/12/13 13:00:00;;;;;;;9.37;7.17;;;;;;;;;;2612911;54;20469;-74
2023/12/13 13:02:27;;;;;;;7.30;5.50;;;;;;;;;;2612779;54;20429;-74
2023/12/13 13:04:53;;;;;;;6.03;4.00;;;;;;;;;;2613829;54;20426;-73
2023/12/13 13:07:20;;;;;;;16.93;6.00;;;;;;;;;;2613631;39;20517;-73
2023/12/13 13:09:46;;;;;;;7.60;5.13;;;;;;;;;;2612182;54;20431;-74
2023/12/13 13:12:12;;;;;;;5.73;3.90;;;;;;;;;;2613633;39;20816;-74
2023/12/13 13:14:39;;;;;;;8.17;4.57;;;;;;;;;;2613071;54;20452;-74
2023/12/13 13:17:05;;;;;;;8.00;4.40;;;;;;;;;;2612761;46;20480;-71
2023/12/13 13:19:31;;;;;;;8.77;5.30;;;;;;;;;;2613836;39;20868;-71
2023/12/13 13:21:57;;;;;;;5.97;4.00;;;;;;;;;;2613488;54;20396;-71
2023/12/13 13:24:23;;;;;;;14.93;11.80;;;;;;;;;;2612973;54;20452;-71
2023/12/13 13:26:49;;;;;;;6.17;4.37;;;;;;;;;;2612933;54;20423;-72
2023/12/13 13:29:16;;;;;;;5.57;3.70;;;;;;;;;;2612461;47;20439;-72
2023/12/13 13:31:42;;;;;;;5.10;2.53;;;;;;;;;;2613249;54;20431;-72
2023/12/13 13:34:08;;;;;;;2.80;2.13;;;;;;;;;;2612588;54;20440;-72
2023/12/13 13:36:34;;;;;;;3.73;1.90;;;;;;;;;;2613142;54;20435;-72
2023/12/13 13:39:00;;;;;;;3.67;2.30;;;;;;;;;;2613455;54;21050;-72
2023/12/13 13:41:28;;;;;;;4.93;2.27;;;;;;;;;;2612016;54;20535;-72
2023/12/13 13:43:54;;;;;;;6.73;2.60;;;;;;;;;;2613727;39;20896;-72
2023/12/13 13:46:20;;;;;;;3.00;1.97;;;;;;;;;;2613159;54;21621;-71
2023/12/13 13:48:46;;;;;;;3.50;2.00;;;;;;;;;;2612754;54;20530;-72
2023/12/13 13:51:13;;;;;;;4.07;2.10;;;;;;;;;;2612482;54;20413;-72
2023/12/13 13:53:39;;;;;;;3.97;2.60;;;;;;;;;;2610189;54;20468;-71
2023/12/13 13:56:06;;;;;;;5.67;2.77;;;;;;;;;;2613556;39;20835;-71
2023/12/13 13:58:32;;;;;;;10.43;3.20;;;;;;;;;;2612630;54;20419;-72
2023/12/13 14:00:58;;;;;;;4.47;4.00;;;;;;;;;;2610621;39;20751;-71
2023/12/13 14:03:24;;;;;;;5.60;3.53;;;;;;;;;;2612841;39;20923;-71
2023/12/13 14:05:50;;;;;;;5.10;3.70;;;;;;;;;;2612639;54;21212;-85
2023/12/13 14:08:17;;;;;;;5.93;4.20;;;;;;;;;;2617636;54;20504;-85
2023/12/13 14:10:44;;;;;;;5.90;4.33;;;;;;;;;;2618100;39;20810;-85
2023/12/13 14:13:10;;;;;;;6.70;4.40;;;;;;;;;;2618190;39;21124;-86
2023/12/13 14:15:36;;;;;;;10.60;4.83;;;;;;;;;;2616730;54;20460;-84
2023/12/13 14:18:04;;;;;;;8.63;4.50;;;;;;;;;;2617119;54;20475;-85
2023/12/13 14:20:31;;;;;;;7.03;5.47;;;;;;;;;;2616162;47;20431;-85
2023/12/13 14:22:57;;;;;;;6.63;3.73;;;;;;;;;;2616519;54;20416;-84
2023/12/13 14:25:23;;;;;;;8.63;3.40;;;;;;;;;;2615475;47;20454;-85
2023/12/13 14:27:49;;;;;;;4.17;3.33;;;;;;;;;;2613325;54;20434;-72
2023/12/13 14:30:16;;;;;;;7.87;3.83;;;;;;;;;;2612931;54;20419;-73
2023/12/13 14:32:43;;;;;;;6.10;3.50;;;;;;;;;;2613144;54;20451;-73
2023/12/13 14:35:09;;;;;;;5.17;3.00;;;;;;;;;;2613282;54;20430;-73